Time;durP1;ratioP1;P1;durP2;ratioP2;P2;SDS_P1;SDS_P2;PMS_P1;PMS_P2;Temp;Humidity;BMP_temperature;BMP_pressure;BME280_temperature;BME280_humidity;BME280_pressure;Samples;Min_cycle;Max_cycle;Signal;HPM_P1;HPM_P2
2023/04/27 00:00:10;;;;;;;3.78;2.50;;;;;;;11.79;100.00;60946.06;5031838;28;20223;-68
2023/04/27 00:02:37;;;;;;;4.07;2.80;;;;;;;11.64;100.00;60883.09;5030544;28;20175;-67
2023/04/27 00:05:04;;;;;;;3.08;2.75;;;;;;;11.82;100.00;60913.59;5031722;28;20171;-65
2023/04/27 00:07:30;;;;;;;5.55;2.63;;;;;;;11.78;100.00;60929.56;5031931;28;20168;-66
2023/04/27 00:09:55;;;;;;;5.15;2.92;;;;;;;11.79;100.00;60917.91;5031752;28;20670;-67
2023/04/27 00:12:21;;;;;;;5.88;2.75;;;;;;;11.85;100.00;60906.75;5032255;28;20178;-67
2023/04/27 00:14:46;;;;;;;4.07;2.75;;;;;;;11.70;100.00;61043.34;5031738;28;20229;-67
2023/04/27 00:17:12;;;;;;;3.85;2.40;;;;;;;11.66;100.00;60957.53;5031622;28;20253;-67
2023/04/27 00:19:38;;;;;;;4.28;2.83;;;;;;;11.74;100.00;60915.41;5031857;28;20645;-68
2023/04/27 00:22:03;;;;;;;3.92;2.92;;;;;;;11.88;100.00;60945.97;5030756;28;20270;-67
2023/04/27 00:24:29;;;;;;;3.85;2.83;;;;;;;11.77;100.00;60898.31;5051462;28;20274;-66
2023/04/27 00:26:55;;;;;;;3.30;2.45;;;;;;;11.78;100.00;60953.16;5026020;28;20183;-68
2023/04/27 00:29:20;;;;;;;3.50;2.58;;;;;;;11.89;100.00;60934.84;5031269;28;20203;-68
2023/04/27 00:31:46;;;;;;;6.07;2.67;;;;;;;11.74;100.00;60884.13;5031738;28;20174;-66
2023/04/27 00:34:11;;;;;;;4.53;3.17;;;;;;;11.64;100.00;60862.63;5031274;28;20209;-66
2023/04/27 00:36:37;;;;;;;4.15;2.28;;;;;;;11.50;100.00;60871.03;5031515;28;20203;-67
2023/04/27 00:39:03;;;;;;;4.55;2.90;;;;;;;11.43;100.00;60873.34;5031422;28;20682;-68
2023/04/27 00:41:28;;;;;;;4.45;2.40;;;;;;;11.75;100.00;60885.25;5031584;28;20176;-68
2023/04/27 00:43:53;;;;;;;4.30;2.58;;;;;;;11.69;100.00;60886.16;5031239;28;20649;-67
2023/04/27 00:46:19;;;;;;;3.97;2.70;;;;;;;11.77;100.00;60908.53;5030598;28;20183;-67
2023/04/27 00:48:45;;;;;;;4.93;2.65;;;;;;;11.57;100.00;60918.69;5031838;28;20175;-67
2023/04/27 00:51:10;;;;;;;2.83;2.38;;;;;;;11.29;100.00;60883.16;5031693;28;20662;-67
2023/04/27 00:53:36;;;;;;;3.70;2.65;;;;;;;11.67;100.00;60948.44;5031145;28;20175;-67
2023/04/27 00:56:03;;;;;;;7.47;2.85;;;;;;;11.41;100.00;60922.25;5031414;28;20218;-67
2023/04/27 00:58:29;;;;;;;2.92;2.42;;;;;;;11.30;100.00;60927.75;5037792;28;20305;-67
2023/04/27 01:00:55;;;;;;;3.75;2.60;;;;;;;11.53;100.00;60887.19;5035098;28;20219;-67
2023/04/27 01:03:21;;;;;;;6.85;2.65;;;;;;;11.47;100.00;60895.75;5035011;28;20554;-68
2023/04/27 01:05:47;;;;;;;3.05;2.75;;;;;;;11.39;100.00;60842.72;5035382;28;20246;-68
2023/04/27 01:08:12;;;;;;;3.15;2.70;;;;;;;11.04;100.00;60847.94;5034983;28;20180;-67
2023/04/27 01:10:37;;;;;;;2.97;2.38;;;;;;;11.07;100.00;60858.97;5034929;28;20306;-67
2023/04/27 01:13:03;;;;;;;2.50;2.13;;;;;;;11.35;100.00;60831.13;5034436;28;20179;-67
2023/04/27 01:15:28;;;;;;;3.17;2.20;;;;;;;11.47;100.00;60867.63;5034862;28;20202;-68
2023/04/27 01:18:01;;;;;;;3.08;2.30;;;;;;;11.17;100.00;60851.22;5033528;28;20177;-67
2023/04/27 01:20:31;;;;;;;3.22;2.35;;;;;;;11.45;100.00;60921.66;5033517;28;20290;-67
2023/04/27 01:22:57;;;;;;;3.90;2.80;;;;;;;11.35;100.00;60838.78;5034688;28;20199;-67
2023/04/27 01:25:23;;;;;;;4.63;2.47;;;;;;;11.13;100.00;60890.72;5034494;28;20171;-68
2023/04/27 01:27:48;;;;;;;2.55;2.17;;;;;;;11.35;100.00;60932.84;5034450;28;20259;-66
2023/04/27 01:30:14;;;;;;;4.15;2.55;;;;;;;11.38;99.21;60833.91;5033073;28;20646;-66
2023/04/27 01:32:40;;;;;;;3.83;2.28;;;;;;;11.47;98.60;60872.75;5034425;28;20167;-69
2023/04/27 01:35:06;;;;;;;3.83;2.30;;;;;;;11.45;98.97;60923.66;5034166;28;20172;-68
2023/04/27 01:37:32;;;;;;;3.83;2.63;;;;;;;11.06;99.10;60865.50;5034129;28;20199;-69
2023/04/27 01:39:57;;;;;;;8.20;2.58;;;;;;;11.30;97.99;60878.63;5034111;28;20266;-67
2023/04/27 01:42:23;;;;;;;3.58;2.35;;;;;;;11.13;99.23;60888.19;5033087;28;20590;-66
2023/04/27 01:44:48;;;;;;;3.08;2.60;;;;;;;11.34;98.10;61080.56;5034068;28;20225;-67
2023/04/27 01:47:15;;;;;;;7.45;2.80;;;;;;;10.97;98.30;60840.06;5032538;28;20187;-66
2023/04/27 01:49:40;;;;;;;2.83;2.20;;;;;;;11.34;97.64;60873.47;5033744;28;20690;-67
2023/04/27 01:52:06;;;;;;;3.25;2.15;;;;;;;11.26;99.63;60851.13;5033896;28;20209;-68
2023/04/27 01:54:31;;;;;;;3.15;2.58;;;;;;;11.08;99.13;60844.78;5034196;28;20186;-68
2023/04/27 01:56:57;;;;;;;3.53;2.75;;;;;;;11.00;98.54;60853.09;5034889;28;20175;-67
2023/04/27 01:59:22;;;;;;;5.35;2.30;;;;;;;11.00;98.64;60847.97;5037226;28;20318;-66
2023/04/27 02:01:48;;;;;;;3.05;2.22;;;;;;;11.30;100.00;60891.41;5033655;28;20172;-67
2023/04/27 02:04:13;;;;;;;11.52;2.97;;;;;;;11.25;98.29;60885.78;5033427;28;20179;-67
2023/04/27 02:06:40;;;;;;;2.42;1.95;;;;;;;11.33;96.97;60823.75;5033590;28;20198;-66
2023/04/27 02:09:06;;;;;;;3.20;2.45;;;;;;;11.22;97.88;61079.81;5033012;28;20207;-66
2023/04/27 02:11:31;;;;;;;4.13;2.55;;;;;;;11.28;96.41;60879.47;5033554;28;20270;-68
2023/04/27 02:13:57;;;;;;;3.78;2.33;;;;;;;10.87;96.55;60989.75;5033525;28;20258;-67
2023/04/27 02:16:22;;;;;;;3.33;2.17;;;;;;;10.85;95.86;60852.09;5034066;28;20322;-67
2023/04/27 02:18:48;;;;;;;3.20;2.45;;;;;;;10.80;98.27;60874.00;5032926;28;20237;-67
2023/04/27 02:21:13;;;;;;;4.78;2.53;;;;;;;10.82;98.17;60843.06;5033668;28;20183;-68
2023/04/27 02:23:39;;;;;;;3.67;2.20;;;;;;;10.81;97.25;60816.94;5034000;28;20206;-68
2023/04/27 02:26:04;;;;;;;2.38;1.80;;;;;;;10.76;98.48;60846.53;5033329;28;20180;-68
2023/04/27 02:28:31;;;;;;;2.72;1.98;;;;;;;11.14;98.23;60879.09;5033678;28;20183;-67
2023/04/27 02:30:56;;;;;;;4.78;2.55;;;;;;;11.14;99.17;60863.75;5033434;28;20206;-67
2023/04/27 02:33:22;;;;;;;2.75;2.20;;;;;;;11.12;98.92;60861.47;5033172;28;20167;-66
2023/04/27 02:35:47;;;;;;;3.03;2.15;;;;;;;10.80;99.30;60840.81;5033486;28;20242;-67
2023/04/27 02:38:13;;;;;;;2.95;2.28;;;;;;;10.47;98.14;60820.13;5033007;28;20167;-68
2023/04/27 02:40:38;;;;;;;4.97;2.50;;;;;;;10.64;99.24;60798.38;5033083;28;20172;-68
2023/04/27 02:43:04;;;;;;;3.17;2.33;;;;;;;10.62;99.57;60824.22;5033232;28;20171;-66
2023/04/27 02:45:29;;;;;;;4.35;2.10;;;;;;;10.72;97.42;60799.16;5033505;28;20175;-66
2023/04/27 02:47:55;;;;;;;6.07;2.17;;;;;;;10.93;98.44;60835.56;5033301;28;20263;-68
2023/04/27 02:50:20;;;;;;;3.63;2.50;;;;;;;10.82;98.78;60863.50;5033054;28;20282;-67
2023/04/27 02:52:45;;;;;;;3.38;2.25;;;;;;;10.71;100.00;60838.34;5033286;28;20175;-67
2023/04/27 02:55:12;;;;;;;4.18;2.25;;;;;;;10.83;97.96;60870.28;5032757;28;20554;-67
2023/04/27 02:57:37;;;;;;;4.30;2.45;;;;;;;10.71;100.00;60831.25;5036829;28;20225;-67
2023/04/27 03:00:05;;;;;;;4.55;2.10;;;;;;;10.73;100.00;60813.03;5033488;28;20179;-68
2023/04/27 03:02:31;;;;;;;4.95;2.40;;;;;;;11.03;99.25;60876.91;5031924;28;20241;-68
2023/04/27 03:04:58;;;;;;;5.50;1.92;;;;;;;10.69;98.27;60828.97;5032796;28;20605;-68
2023/04/27 03:07:23;;;;;;;6.15;2.60;;;;;;;10.61;99.15;60832.75;5032742;28;20643;-67
2023/04/27 03:09:48;;;;;;;7.03;2.50;;;;;;;10.79;99.66;60865.22;5032511;28;20197;-67
2023/04/27 03:12:14;;;;;;;4.78;3.15;;;;;;;11.11;98.11;60850.13;5032619;28;20175;-67
2023/04/27 03:14:39;;;;;;;4.40;2.60;;;;;;;11.17;98.07;61109.41;5031678;28;20183;-68
2023/04/27 03:17:05;;;;;;;2.95;2.47;;;;;;;11.10;98.94;60864.34;5032475;28;20270;-67
2023/04/27 03:19:30;;;;;;;3.38;2.40;;;;;;;10.96;97.80;61058.13;5032094;28;20574;-68
2023/04/27 03:21:56;;;;;;;5.70;2.47;;;;;;;10.95;99.59;60839.81;5031147;28;20277;-67
2023/04/27 03:24:24;;;;;;;2.67;2.25;;;;;;;10.60;96.41;60839.84;5032163;28;20175;-67
2023/04/27 03:26:50;;;;;;;3.55;2.53;;;;;;;11.04;96.01;60863.28;5032422;28;20175;-68
2023/04/27 03:29:15;;;;;;;3.85;2.25;;;;;;;11.05;95.14;60828.06;5032435;28;20195;-67
2023/04/27 03:31:41;;;;;;;4.30;2.00;;;;;;;10.73;94.95;60868.69;5032085;28;20178;-67
2023/04/27 03:34:06;;;;;;;3.63;2.22;;;;;;;10.60;95.09;60829.06;5030170;28;20196;-68
2023/04/27 03:36:34;;;;;;;3.35;2.40;;;;;;;11.00;95.35;60902.22;5031980;28;20199;-71
2023/04/27 03:39:03;;;;;;;4.47;2.30;;;;;;;10.96;96.82;60828.13;5032043;28;20175;-68
2023/04/27 03:41:28;;;;;;;3.72;2.33;;;;;;;10.49;96.42;60775.84;5012324;28;20187;-68
2023/04/27 03:43:54;;;;;;;2.53;2.20;;;;;;;10.85;96.88;60862.31;5025353;28;20218;-67
2023/04/27 03:46:19;;;;;;;6.30;2.20;;;;;;;10.59;95.67;60838.72;5031830;28;20179;-68
2023/04/27 03:48:46;;;;;;;2.00;1.80;;;;;;;10.59;96.13;60790.19;5031932;28;20167;-67
2023/04/27 03:51:11;;;;;;;3.35;2.25;;;;;;;10.63;96.03;60771.16;5031863;28;20171;-68
2023/04/27 03:53:36;;;;;;;2.83;2.35;;;;;;;10.80;98.14;60856.69;5031564;28;20255;-67
2023/04/27 03:56:02;;;;;;;6.68;2.50;;;;;;;10.75;97.03;60827.50;5031673;28;20662;-67
2023/04/27 03:58:27;;;;;;;3.28;2.67;;;;;;;10.94;95.37;60861.66;5035028;28;20235;-67
2023/04/27 04:00:53;;;;;;;4.15;2.33;;;;;;;10.74;95.41;60875.47;5031873;28;20167;-66
2023/04/27 04:03:19;;;;;;;3.13;2.40;;;;;;;11.17;95.22;60831.31;5031938;28;20572;-67
2023/04/27 04:05:45;;;;;;;2.22;2.03;;;;;;;11.16;94.93;60880.75;5032054;28;20221;-69
2023/04/27 04:08:12;;;;;;;2.50;2.20;;;;;;;11.19;95.25;60902.03;5031340;28;20178;-66
2023/04/27 04:10:38;;;;;;;4.05;2.70;;;;;;;11.10;94.20;60992.13;5031980;28;20261;-66
2023/04/27 04:13:03;;;;;;;3.50;2.35;;;;;;;10.92;93.35;60865.09;5031667;28;20172;-68
2023/04/27 04:15:28;;;;;;;3.35;2.25;;;;;;;11.41;92.73;60878.78;5032026;28;20195;-67
2023/04/27 04:17:54;;;;;;;4.00;2.40;;;;;;;11.61;91.97;60953.88;5031484;28;20492;-67
2023/04/27 04:20:20;;;;;;;4.82;2.15;;;;;;;11.65;88.86;60907.25;5031736;28;20389;-67
2023/04/27 04:22:45;;;;;;;2.75;2.13;;;;;;;12.27;88.27;61025.19;5031776;28;20247;-67
2023/04/27 04:25:11;;;;;;;5.32;2.22;;;;;;;12.75;82.90;61063.97;5032335;28;20596;-69
2023/04/27 04:27:37;;;;;;;3.22;2.25;;;;;;;13.25;82.42;61096.19;5031577;28;20175;-68
2023/04/27 04:30:05;;;;;;;2.30;2.10;;;;;;;13.26;81.29;61061.41;5031571;28;20216;-68
2023/04/27 04:32:30;;;;;;;2.53;2.08;;;;;;;12.87;80.16;61084.03;5033840;28;20168;-70
2023/04/27 04:35:00;;;;;;;2.50;2.30;;;;;;;12.55;84.89;61026.03;5035712;28;20182;-68
2023/04/27 04:37:25;;;;;;;3.53;2.28;;;;;;;12.12;83.81;60962.19;5035615;28;20178;-68
2023/04/27 04:39:51;;;;;;;4.93;2.60;;;;;;;12.09;87.63;60956.25;5035325;28;20179;-69
2023/04/27 04:42:16;;;;;;;4.70;2.22;;;;;;;12.32;84.95;60980.16;5032167;28;20575;-67
2023/04/27 04:44:42;;;;;;;3.10;2.20;;;;;;;12.55;86.87;61010.09;5033477;28;20229;-67
2023/04/27 04:47:09;;;;;;;2.40;1.95;;;;;;;12.37;85.38;61013.41;5035000;28;20588;-67
2023/04/27 04:49:34;;;;;;;4.25;2.47;;;;;;;12.37;85.02;60980.69;5034073;28;20277;-66
2023/04/27 04:52:00;;;;;;;6.97;2.55;;;;;;;12.14;85.33;60990.03;5032812;28;20699;-68
2023/04/27 04:54:25;;;;;;;3.58;2.35;;;;;;;12.37;84.56;60996.06;5034547;28;20556;-67
2023/04/27 04:56:50;;;;;;;3.95;2.40;;;;;;;12.70;84.38;61021.88;5034041;28;20193;-67
2023/04/27 04:59:16;;;;;;;3.95;2.47;;;;;;;12.20;86.31;60966.09;5039228;28;20245;-68
2023/04/27 05:01:42;;;;;;;2.42;2.22;;;;;;;12.50;85.60;60971.72;5033366;28;20686;-68
2023/04/27 05:04:07;;;;;;;3.45;2.50;;;;;;;12.74;84.48;61014.13;5034300;28;20342;-67
2023/04/27 05:06:32;;;;;;;3.22;2.35;;;;;;;12.35;84.56;60973.28;5034115;28;20179;-68
2023/04/27 05:08:58;;;;;;;3.35;2.50;;;;;;;12.54;83.38;61039.69;5034499;28;20234;-66
2023/04/27 05:11:23;;;;;;;2.97;2.10;;;;;;;12.23;86.06;60920.81;5034221;28;20175;-67
2023/04/27 05:13:49;;;;;;;8.40;2.20;;;;;;;11.97;84.64;60935.06;5034134;28;20658;-67
2023/04/27 05:16:14;;;;;;;6.00;2.33;;;;;;;12.29;83.94;60969.13;5034392;28;20170;-67
2023/04/27 05:18:40;;;;;;;2.80;2.35;;;;;;;12.08;83.46;60950.56;5034388;28;20183;-68
2023/04/27 05:21:13;;;;;;;4.75;2.22;;;;;;;12.31;84.24;60986.72;5033857;28;20207;-67
2023/04/27 05:23:38;;;;;;;2.30;2.10;;;;;;;12.25;85.64;61000.44;5034422;28;20175;-66
2023/04/27 05:26:11;;;;;;;5.68;2.25;;;;;;;12.13;84.32;60935.72;5033831;28;20536;-67
2023/04/27 05:28:36;;;;;;;5.70;2.30;;;;;;;12.50;85.71;61025.50;5034117;28;20167;-68
2023/04/27 05:31:02;;;;;;;3.50;2.10;;;;;;;12.21;81.20;60929.34;5034262;28;20681;-68
2023/04/27 05:33:27;;;;;;;2.97;2.22;;;;;;;12.39;84.01;61182.19;5033557;28;20206;-67
2023/04/27 05:35:52;;;;;;;2.72;2.15;;;;;;;12.63;82.41;60994.03;5033678;28;20175;-68
2023/04/27 05:38:18;;;;;;;2.70;2.00;;;;;;;12.60;80.43;61020.84;5033487;28;20635;-67
2023/04/27 05:40:44;;;;;;;3.88;2.15;;;;;;;12.82;78.85;61053.34;5032698;28;20171;-67
2023/04/27 05:43:09;;;;;;;2.67;2.00;;;;;;;12.71;78.03;61051.19;5032428;28;20708;-67
2023/04/27 05:45:38;;;;;;;2.03;1.80;;;;;;;12.80;79.12;61022.91;5034155;28;20175;-67
2023/04/27 05:48:03;;;;;;;3.38;1.95;;;;;;;12.76;77.92;61075.31;5033683;28;20191;-69
2023/04/27 05:50:29;;;;;;;3.08;2.20;;;;;;;12.56;81.86;60983.59;5033869;28;20678;-67
2023/04/27 05:52:54;;;;;;;2.38;2.08;;;;;;;12.46;76.20;60997.94;5033675;28;20195;-68
2023/04/27 05:55:20;;;;;;;6.35;2.47;;;;;;;12.53;76.65;61007.84;5033858;28;20175;-68
2023/04/27 05:57:46;;;;;;;2.47;2.10;;;;;;;12.59;75.98;61222.13;5038804;28;20290;-68
2023/04/27 06:00:12;;;;;;;3.67;2.20;;;;;;;12.14;77.77;60938.84;5033992;28;20225;-68
2023/04/27 06:02:37;;;;;;;2.22;2.00;;;;;;;12.41;77.61;60943.63;5033427;28;20629;-69
2023/04/27 06:05:02;;;;;;;2.72;2.08;;;;;;;12.03;79.54;60978.22;5033432;28;20250;-73
2023/04/27 06:07:28;;;;;;;2.55;2.10;;;;;;;12.14;79.89;60949.66;5033630;28;20591;-71
2023/04/27 06:09:53;;;;;;;2.25;1.95;;;;;;;12.14;78.79;61108.38;5032596;28;20278;-67
2023/04/27 06:12:19;;;;;;;3.20;2.00;;;;;;;12.00;78.37;60939.00;5032091;28;20603;-68
2023/04/27 06:14:44;;;;;;;2.20;1.90;;;;;;;12.01;79.27;60917.09;5033363;28;20206;-67
2023/04/27 06:17:10;;;;;;;3.42;2.08;;;;;;;12.36;80.51;60994.91;5033514;28;20179;-67
2023/04/27 06:19:35;;;;;;;2.03;1.83;;;;;;;12.05;78.54;60982.47;5032969;28;20259;-66
2023/04/27 06:22:02;;;;;;;2.45;2.10;;;;;;;12.37;78.67;61001.16;5033421;28;20180;-67
2023/04/27 06:24:27;;;;;;;3.08;2.15;;;;;;;12.37;80.31;60980.13;5033536;28;20183;-67
2023/04/27 06:26:53;;;;;;;2.65;2.00;;;;;;;12.37;80.86;60951.94;5032829;28;20172;-67
2023/04/27 06:29:19;;;;;;;3.63;2.03;;;;;;;12.20;80.11;61145.34;5033239;28;20276;-68
2023/04/27 06:31:44;;;;;;;8.10;2.13;;;;;;;12.42;78.34;60980.63;5033445;28;20206;-67
2023/04/27 06:34:09;;;;;;;2.67;2.30;;;;;;;12.12;80.92;60973.00;5032146;28;20209;-67
2023/04/27 06:36:35;;;;;;;3.97;2.15;;;;;;;12.04;79.40;60979.34;5033274;28;20221;-67
2023/04/27 06:39:00;;;;;;;2.85;2.28;;;;;;;12.44;78.69;60954.16;5033038;28;20623;-67
2023/04/27 06:41:26;;;;;;;3.63;2.20;;;;;;;12.61;80.35;60978.41;5032739;28;20176;-67
2023/04/27 06:43:52;;;;;;;3.55;2.28;;;;;;;12.69;78.94;61034.13;5032769;28;20183;-68
2023/04/27 06:46:19;;;;;;;4.05;2.47;;;;;;;12.56;79.38;60970.22;5032865;28;20180;-67
2023/04/27 06:48:45;;;;;;;2.50;2.00;;;;;;;12.91;78.87;61027.59;5032641;28;20167;-67
2023/04/27 06:51:11;;;;;;;4.80;1.88;;;;;;;13.08;77.95;61069.28;5032793;28;20202;-67
2023/04/27 06:53:37;;;;;;;3.45;2.03;;;;;;;12.84;78.92;60981.84;5032008;28;20518;-67
2023/04/27 06:56:03;;;;;;;4.57;2.90;;;;;;;12.89;78.86;61191.41;5032241;28;20212;-67
2023/04/27 06:58:28;;;;;;;3.50;2.20;;;;;;;13.02;78.75;61237.44;5038427;28;20215;-68
2023/04/27 07:00:54;;;;;;;2.33;2.00;;;;;;;12.81;76.85;60995.81;5032902;28;20179;-67
2023/04/27 07:03:21;;;;;;;2.20;1.83;;;;;;;13.21;78.09;61081.97;5032087;28;20746;-67
2023/04/27 07:05:46;;;;;;;2.90;2.35;;;;;;;13.50;77.83;61139.22;5032191;28;20669;-67
2023/04/27 07:08:12;;;;;;;4.20;2.10;;;;;;;13.54;76.41;61069.88;5032423;28;20179;-67
2023/04/27 07:10:37;;;;;;;5.88;1.85;;;;;;;13.50;75.70;61075.06;5031981;28;20191;-67
2023/04/27 07:13:03;;;;;;;2.97;2.05;;;;;;;13.75;76.67;61082.16;5032385;28;20733;-67
2023/04/27 07:15:29;;;;;;;2.95;2.40;;;;;;;13.65;75.98;61081.72;5032390;28;20194;-67
2023/04/27 07:17:55;;;;;;;3.08;2.20;;;;;;;14.10;74.63;61165.31;5030948;28;20199;-68
2023/04/27 07:20:21;;;;;;;3.00;2.05;;;;;;;14.04;75.79;61163.69;5031106;28;20273;-68
2023/04/27 07:22:46;;;;;;;2.75;2.13;;;;;;;14.25;77.45;61205.38;5030042;28;20179;-68
2023/04/27 07:25:12;;;;;;;3.33;2.22;;;;;;;14.23;74.56;61213.41;5031927;28;20176;-68
2023/04/27 07:27:38;;;;;;;3.40;2.30;;;;;;;14.42;74.02;61159.78;5032289;28;20179;-68
2023/04/27 07:30:06;;;;;;;2.78;2.20;;;;;;;14.45;73.16;61199.72;5032190;28;20203;-67
2023/04/27 07:32:31;;;;;;;5.70;2.30;;;;;;;14.74;71.74;61183.06;5032353;28;20214;-67
2023/04/27 07:34:57;;;;;;;2.25;1.92;;;;;;;14.50;68.24;61168.81;5031670;28;20643;-67
2023/04/27 07:37:23;;;;;;;2.50;1.98;;;;;;;14.61;67.92;61209.53;5032391;28;20249;-69
2023/04/27 07:39:50;;;;;;;2.25;1.75;;;;;;;14.53;68.40;61219.03;5030722;28;20175;-67
2023/04/27 07:42:17;;;;;;;1.60;1.50;;;;;;;14.92;67.24;61182.22;5031623;28;20172;-67
2023/04/27 07:44:43;;;;;;;3.65;1.70;;;;;;;14.80;64.55;61202.69;5032033;28;20178;-67
2023/04/27 07:47:08;;;;;;;1.95;1.75;;;;;;;14.63;65.61;61219.47;5031932;28;20200;-67
2023/04/27 07:49:36;;;;;;;3.55;2.22;;;;;;;14.59;66.34;61272.09;5032167;28;20203;-68
2023/04/27 07:52:01;;;;;;;3.55;1.88;;;;;;;14.49;66.44;61193.94;5032691;28;20179;-66
2023/04/27 07:54:27;;;;;;;2.67;2.28;;;;;;;14.75;66.29;61184.16;5031962;28;20705;-66
2023/04/27 07:56:53;;;;;;;4.35;2.20;;;;;;;15.21;69.19;61281.88;5034159;28;20175;-67
2023/04/27 07:59:18;;;;;;;3.00;2.38;;;;;;;15.59;62.65;61339.75;5033841;28;20226;-68
2023/04/27 08:01:44;;;;;;;2.50;2.03;;;;;;;15.63;63.97;61308.22;5031385;28;20171;-68
2023/04/27 08:04:11;;;;;;;2.10;1.92;;;;;;;15.33;61.86;61272.28;5031743;28;20178;-66
2023/04/27 08:06:36;;;;;;;2.47;1.77;;;;;;;15.77;62.10;61344.06;5031524;28;20175;-68
2023/04/27 08:09:03;;;;;;;5.60;2.15;;;;;;;16.11;62.17;61369.09;5031629;28;20363;-67
2023/04/27 08:11:29;;;;;;;2.55;2.00;;;;;;;16.06;61.92;61347.97;5031961;28;20171;-67
2023/04/27 08:13:54;;;;;;;3.50;1.90;;;;;;;16.42;61.01;61386.13;5031867;28;20203;-69
2023/04/27 08:16:20;;;;;;;4.35;2.40;;;;;;;16.47;62.59;61398.94;5032155;28;20180;-67
2023/04/27 08:18:45;;;;;;;3.08;1.92;;;;;;;16.31;60.97;61396.88;5032070;28;20167;-66
2023/04/27 08:21:11;;;;;;;2.70;2.10;;;;;;;16.49;60.54;61355.38;5031746;28;20241;-68
2023/04/27 08:23:37;;;;;;;2.38;2.03;;;;;;;16.61;58.65;61420.53;5031750;28;20258;-68
2023/04/27 08:26:03;;;;;;;3.25;2.20;;;;;;;16.48;59.15;61364.53;5031719;28;20237;-66
2023/04/27 08:28:28;;;;;;;3.53;2.30;;;;;;;16.70;58.31;61417.81;5031524;28;20639;-67
2023/04/27 08:30:54;;;;;;;2.63;1.90;;;;;;;16.89;59.65;61485.22;5031471;28;20265;-68
2023/04/27 08:33:19;;;;;;;3.75;1.98;;;;;;;17.35;55.77;61479.94;5031694;28;20663;-68
2023/04/27 08:35:45;;;;;;;2.55;2.05;;;;;;;17.34;56.26;61463.31;5031073;28;20210;-68
2023/04/27 08:38:10;;;;;;;2.85;2.03;;;;;;;16.99;58.39;61446.94;5031696;28;20550;-67
2023/04/27 08:40:41;;;;;;;5.57;2.38;;;;;;;17.19;54.76;61469.59;5031158;28;20285;-68
2023/04/27 08:43:07;;;;;;;4.30;1.88;;;;;;;17.29;56.78;61514.47;5031140;28;20210;-69
2023/04/27 08:45:32;;;;;;;3.75;2.50;;;;;;;17.17;55.35;61456.97;5031258;28;20708;-67
2023/04/27 08:47:57;;;;;;;3.22;2.30;;;;;;;17.37;55.00;61481.66;5031105;28;20663;-68
2023/04/27 08:50:23;;;;;;;2.88;1.92;;;;;;;17.71;55.50;61509.28;5031038;28;20762;-67
2023/04/27 08:52:49;;;;;;;4.63;2.20;;;;;;;18.27;54.50;61552.03;5031113;28;20182;-67
2023/04/27 08:55:15;;;;;;;4.13;2.13;;;;;;;18.38;55.23;61548.97;5029868;28;20262;-67
2023/04/27 08:57:41;;;;;;;2.17;1.75;;;;;;;18.09;53.88;61573.00;5036583;28;20313;-67
2023/04/27 09:00:13;;;;;;;2.20;2.00;;;;;;;17.46;53.98;61486.69;5031426;28;20598;-67
2023/04/27 09:02:45;;;;;;;2.60;2.22;;;;;;;17.35;54.54;61671.06;5031586;28;20195;-68
2023/04/27 09:05:18;;;;;;;2.50;2.03;;;;;;;17.37;58.05;61443.47;5031657;28;20245;-68
2023/04/27 09:08:04;;;;;;;3.83;2.13;;;;;;;17.75;55.54;61537.06;5031166;28;20623;-67
2023/04/27 09:10:30;;;;;;;2.90;1.92;;;;;;;18.07;51.80;61531.97;5031373;28;20581;-67
2023/04/27 09:12:59;;;;;;;3.00;2.08;;;;;;;18.51;52.10;61610.28;5031265;28;20175;-67
2023/04/27 09:15:26;;;;;;;2.80;2.28;;;;;;;17.72;53.59;61505.22;5031573;28;20700;-66
2023/04/27 09:17:57;;;;;;;3.53;2.20;;;;;;;18.10;54.56;61574.16;5031098;28;20171;-68
2023/04/27 09:20:25;;;;;;;3.10;2.00;;;;;;;18.62;52.96;61616.47;5034582;28;20206;-67
2023/04/27 09:22:54;;;;;;;2.03;1.75;;;;;;;18.44;52.81;61592.00;5034651;28;20172;-68
2023/04/27 09:25:26;;;;;;;2.42;1.90;;;;;;;18.71;51.63;61621.50;5034809;28;20172;-67
2023/04/27 09:27:53;;;;;;;2.53;2.03;;;;;;;18.30;51.63;61537.34;5034781;28;20210;-67
2023/04/27 09:30:19;;;;;;;2.92;2.20;;;;;;;18.32;50.36;61683.88;5034344;28;20588;-68
2023/04/27 09:32:59;;;;;;;2.30;2.00;;;;;;;18.23;53.04;61568.19;5034175;28;20275;-68
2023/04/27 09:35:28;;;;;;;3.05;1.90;;;;;;;17.70;52.90;61710.28;5033563;28;20175;-67
2023/04/27 09:37:54;;;;;;;3.30;2.15;;;;;;;17.53;55.37;61458.44;5034226;28;20589;-68
2023/04/27 09:40:28;;;;;;;5.53;2.10;;;;;;;17.44;53.01;61471.50;5034469;28;20206;-68
2023/04/27 09:42:55;;;;;;;4.65;2.42;;;;;;;16.99;57.10;61426.28;5034182;28;20175;-67
2023/04/27 09:45:25;;;;;;;2.72;1.98;;;;;;;17.09;55.16;61466.00;5034075;28;20639;-68
2023/04/27 09:47:51;;;;;;;4.25;2.08;;;;;;;17.14;57.05;61443.28;5033544;28;20179;-69
2023/04/27 09:50:16;;;;;;;3.35;2.00;;;;;;;17.15;56.03;61436.66;5034050;28;20195;-67
2023/04/27 09:52:42;;;;;;;6.45;2.20;;;;;;;17.45;56.09;61521.69;5033977;28;20206;-67
2023/04/27 09:55:16;;;;;;;3.15;2.10;;;;;;;17.61;54.69;61501.69;5033744;28;20171;-68
2023/04/27 09:58:02;;;;;;;2.38;2.00;;;;;;;18.23;52.84;61604.41;5038479;28;20223;-68
2023/04/27 10:01:03;;;;;;;3.03;1.95;;;;;;;18.35;51.20;61597.31;5033914;28;20183;-66
2023/04/27 10:03:31;;;;;;;3.72;2.10;;;;;;;17.90;52.10;61521.03;5015157;28;20719;-66
2023/04/27 10:06:25;;;;;;;1.85;1.67;;;;;;;18.30;49.50;61534.75;5033834;28;20316;-67
2023/04/27 10:08:51;;;;;;;2.40;1.90;;;;;;;18.39;52.67;61567.66;5033741;28;20618;-68
2023/04/27 10:11:19;;;;;;;2.83;2.00;;;;;;;18.20;50.79;61530.59;5033624;28;20207;-68
2023/04/27 10:13:52;;;;;;;3.63;1.90;;;;;;;17.92;50.27;61531.06;5033604;28;20612;-66
2023/04/27 10:16:19;;;;;;;4.03;2.00;;;;;;;17.70;50.75;61502.97;5033589;28;20167;-68
2023/04/27 10:18:53;;;;;;;7.78;2.20;;;;;;;17.82;52.35;61511.41;5033061;28;20176;-67
2023/04/27 10:21:18;;;;;;;3.92;1.85;;;;;;;17.70;52.33;61495.22;5031917;28;20179;-67
2023/04/27 10:23:47;;;;;;;3.97;2.30;;;;;;;17.94;54.49;61553.97;5033001;28;20580;-67
2023/04/27 10:26:21;;;;;;;4.72;2.17;;;;;;;17.84;55.30;61555.59;5032814;28;20564;-68
2023/04/27 10:28:55;;;;;;;2.88;1.90;;;;;;;17.73;56.76;61537.94;5032932;28;20654;-68
2023/04/27 10:31:27;;;;;;;4.28;2.05;;;;;;;17.41;60.07;61442.84;5032476;28;20193;-68
2023/04/27 10:34:03;;;;;;;2.78;2.10;;;;;;;17.70;61.81;61506.13;5032854;28;20168;-68
2023/04/27 10:36:35;;;;;;;2.88;1.98;;;;;;;17.64;61.60;61461.16;5032552;28;20541;-67
2023/04/27 10:39:02;;;;;;;3.00;2.33;;;;;;;17.46;58.95;61464.00;5033427;28;20163;-67
2023/04/27 10:41:37;;;;;;;3.05;1.98;;;;;;;17.65;56.01;61508.22;5032374;28;20211;-67
2023/04/27 10:44:27;;;;;;;3.03;2.15;;;;;;;18.28;55.13;61588.81;5032289;28;20255;-68
2023/04/27 10:46:54;;;;;;;2.95;1.90;;;;;;;17.99;52.40;61535.81;5032817;28;20182;-68
2023/04/27 10:49:21;;;;;;;2.30;2.05;;;;;;;18.15;52.29;61566.31;5032772;28;20704;-68
2023/04/27 10:51:49;;;;;;;3.05;1.90;;;;;;;18.23;53.68;61565.03;5032892;28;20186;-66
2023/04/27 10:54:15;;;;;;;2.80;2.08;;;;;;;18.25;52.88;61580.25;5032787;28;20631;-68
2023/04/27 10:56:40;;;;;;;3.58;2.20;;;;;;;18.61;51.83;61604.97;5033837;28;20202;-67
2023/04/27 10:59:07;;;;;;;3.92;2.35;;;;;;;18.64;49.44;61606.34;5037235;28;20715;-68
2023/04/27 11:01:32;;;;;;;2.17;1.98;;;;;;;18.88;50.31;61664.63;5032963;28;20175;-68
2023/04/27 11:03:59;;;;;;;2.13;1.88;;;;;;;19.21;47.65;61665.25;5033276;28;20187;-68
2023/04/27 11:06:27;;;;;;;2.70;1.92;;;;;;;18.23;49.74;61580.56;5031773;28;20563;-67
2023/04/27 11:08:52;;;;;;;2.38;1.83;;;;;;;18.17;52.45;61620.88;5033478;28;20599;-67
2023/04/27 11:11:19;;;;;;;4.75;2.00;;;;;;;18.70;49.00;61622.94;5032788;28;20682;-68
2023/04/27 11:13:48;;;;;;;3.50;2.10;;;;;;;18.69;51.33;61612.03;5032864;28;20176;-68
2023/04/27 11:16:15;;;;;;;2.45;1.88;;;;;;;18.92;49.33;61868.53;5032532;28;20186;-67
2023/04/27 11:18:40;;;;;;;4.18;2.10;;;;;;;18.98;50.65;61670.25;5032792;28;20199;-67
2023/04/27 11:21:14;;;;;;;3.67;2.17;;;;;;;18.07;48.74;61485.44;5032348;28;20682;-67
2023/04/27 11:23:40;;;;;;;3.33;2.50;;;;;;;18.43;48.99;61577.34;5032369;28;20623;-68
2023/04/27 11:26:23;;;;;;;3.35;2.13;;;;;;;18.33;49.75;61579.53;5031181;28;20257;-67
2023/04/27 11:29:11;;;;;;;4.63;2.38;;;;;;;18.53;49.61;61550.47;5032653;28;20197;-69